Portada
METAR-TAF:

METAR-TAF

Aeroports :

Lewis University Airport

Romeoville, Illinois, Estats Units d'Amèrica

latitud: 41-36-30N, longitud: 088-05-39W, altitud: 205 m

Observació

L'informe es va fer fa 24 minuts, a les 07:15 UTC
Vent 9 kt del Est/Nord-Est
Temperatura 17°C
Humitat 88%
Pressió 1019 hPa
Visibilitat: 16.1 km
Cel clar

METAR: KLOT 250715Z AUTO 06009KT 10SM CLR 17/15 A3008 RMK AO2 T01700153

Hora: 02:39 (07:39 UTC)


TAF: manca

Observacions i pronòstics meteorològics de més de 4000 aeroports (METAR i TAF).

Les estacions disponibles són els punts grocs i vermells al mapa.

Posi el ratolí al punt desitjat per veure el nom de l'estació.

Feu clic per veure les observacions i els pronòstics meteorològics.

Per canviar el mapa: feu clic els botons verds amb una creu de color negre per apropar; al botó verd amb un guió per allunyar la imatge; o en les fletxes verdes per a mapes adjacents.


METAR-TAF: